createdAt,value
2018-07-23T00:00:25.150Z,21.29
2018-07-23T00:02:54.096Z,21.29
2018-07-23T00:05:23.355Z,21.26
2018-07-23T00:07:52.235Z,21.24
2018-07-23T00:10:21.488Z,21.14
2018-07-23T00:12:50.602Z,21.13
2018-07-23T00:15:19.733Z,21.13
2018-07-23T00:17:49.020Z,21.06
2018-07-23T00:20:18.259Z,21.10
2018-07-23T00:22:47.545Z,21.12
2018-07-23T00:25:16.747Z,21.14
2018-07-23T00:27:46.037Z,21.11
2018-07-23T00:30:15.320Z,21.12
2018-07-23T00:32:44.700Z,21.10
2018-07-23T00:35:14.127Z,21.05
2018-07-23T00:37:43.433Z,21.08
2018-07-23T00:40:12.697Z,21.03
2018-07-23T00:42:41.859Z,21.02
2018-07-23T00:45:11.024Z,20.95
2018-07-23T00:47:40.179Z,20.91
2018-07-23T00:50:09.548Z,20.85
2018-07-23T00:52:38.668Z,20.87
2018-07-23T00:55:07.771Z,20.81
2018-07-23T00:57:36.921Z,20.79
2018-07-23T01:00:06.177Z,20.77
2018-07-23T01:02:35.267Z,20.77
2018-07-23T01:05:04.380Z,20.75
2018-07-23T01:07:33.566Z,20.73
2018-07-23T01:10:02.689Z,20.69
2018-07-23T01:12:32.973Z,20.75
2018-07-23T01:15:02.291Z,20.69
2018-07-23T01:17:31.427Z,20.66
2018-07-23T01:20:00.955Z,20.63
2018-07-23T01:22:30.085Z,20.56
2018-07-23T01:24:59.540Z,20.57
2018-07-23T01:27:28.794Z,20.60
2018-07-23T01:29:57.964Z,20.56
2018-07-23T01:32:27.085Z,20.53
2018-07-23T01:34:56.224Z,20.56
2018-07-23T01:37:25.354Z,20.51
2018-07-23T01:39:54.546Z,20.46
2018-07-23T01:42:23.759Z,20.40
2018-07-23T01:44:52.763Z,20.44
2018-07-23T01:47:21.959Z,20.45
2018-07-23T01:49:51.191Z,20.44
2018-07-23T01:52:20.387Z,20.37
2018-07-23T01:54:49.643Z,20.35
2018-07-23T01:57:18.812Z,20.34
2018-07-23T01:59:47.900Z,20.29
2018-07-23T02:02:17.171Z,20.26
2018-07-23T02:04:46.453Z,20.23
2018-07-23T02:07:15.679Z,20.22
2018-07-23T02:09:44.865Z,20.19
2018-07-23T02:12:13.827Z,20.21
2018-07-23T02:14:43.070Z,20.19
2018-07-23T02:17:12.316Z,20.18
2018-07-23T02:19:41.837Z,20.14
2018-07-23T02:22:11.276Z,20.12
2018-07-23T02:24:40.473Z,20.09
2018-07-23T02:27:09.854Z,20.06
2018-07-23T02:29:38.875Z,20.05
2018-07-23T02:32:08.098Z,20.06
2018-07-23T02:34:37.299Z,20.03
2018-07-23T02:37:06.505Z,20.01
2018-07-23T02:39:35.647Z,19.97
2018-07-23T02:42:05.860Z,19.99
2018-07-23T02:44:35.159Z,19.94
2018-07-23T02:47:04.200Z,19.90
2018-07-23T02:49:33.359Z,19.85
2018-07-23T02:52:02.807Z,19.86
2018-07-23T02:54:31.762Z,19.83
2018-07-23T02:57:00.933Z,19.80
2018-07-23T02:59:30.252Z,19.80
2018-07-23T03:01:59.473Z,19.75
2018-07-23T03:04:28.614Z,19.73
2018-07-23T03:06:57.785Z,19.74
2018-07-23T03:09:26.911Z,19.77
2018-07-23T03:11:56.149Z,19.75
2018-07-23T03:14:25.271Z,19.69
2018-07-23T03:16:54.445Z,19.79
2018-07-23T03:19:23.632Z,19.80
2018-07-23T03:21:53.053Z,19.87
2018-07-23T03:24:21.855Z,19.85
2018-07-23T03:26:50.977Z,19.86
2018-07-23T03:29:20.190Z,19.81
2018-07-23T03:31:49.364Z,19.75
2018-07-23T03:34:18.570Z,19.73
2018-07-23T03:36:47.733Z,19.71
2018-07-23T03:39:17.134Z,19.77
2018-07-23T03:41:46.339Z,19.77
2018-07-23T03:44:15.848Z,19.83
2018-07-23T03:46:45.288Z,19.87
2018-07-23T03:49:14.516Z,19.87
2018-07-23T03:51:43.835Z,19.93
2018-07-23T03:54:13.130Z,19.96
2018-07-23T03:56:42.133Z,19.95
2018-07-23T03:59:11.416Z,19.95
2018-07-23T04:01:40.430Z,19.97
2018-07-23T04:04:09.748Z,19.99
2018-07-23T04:06:38.929Z,20.02
2018-07-23T04:09:09.289Z,19.99
2018-07-23T04:11:38.464Z,20.00
2018-07-23T04:14:08.548Z,20.06
2018-07-23T04:16:37.539Z,20.18
2018-07-23T04:19:07.038Z,20.19
2018-07-23T04:21:36.359Z,20.27
2018-07-23T04:24:05.805Z,20.28
2018-07-23T04:26:35.134Z,20.32
2018-07-23T04:29:04.351Z,20.36
2018-07-23T04:31:33.455Z,20.43
2018-07-23T04:34:02.669Z,20.52
2018-07-23T04:36:31.799Z,20.63
2018-07-23T04:39:01.002Z,20.70
2018-07-23T04:41:30.160Z,20.81
2018-07-23T04:43:59.419Z,20.95
2018-07-23T04:46:28.948Z,21.10
2018-07-23T04:48:58.163Z,21.24
2018-07-23T04:51:27.355Z,21.48
2018-07-23T04:53:56.546Z,21.61
2018-07-23T04:56:25.783Z,21.73
2018-07-23T04:58:54.902Z,21.77
2018-07-23T05:01:24.137Z,21.81
2018-07-23T05:03:53.420Z,21.93
2018-07-23T05:06:22.631Z,22.16
2018-07-23T05:08:51.840Z,22.31
2018-07-23T05:11:21.028Z,22.38
2018-07-23T05:13:50.268Z,22.47
2018-07-23T05:16:19.512Z,22.45
2018-07-23T05:18:48.798Z,22.52
2018-07-23T05:21:18.033Z,22.65
2018-07-23T05:23:47.492Z,22.67
2018-07-23T05:26:16.696Z,22.51
2018-07-23T05:28:45.914Z,22.69
2018-07-23T05:31:15.192Z,22.99
2018-07-23T05:33:45.656Z,23.25
2018-07-23T05:36:15.014Z,23.07
2018-07-23T05:38:44.249Z,23.37
2018-07-23T05:41:13.556Z,23.04
2018-07-23T05:43:42.919Z,23.23
2018-07-23T05:46:12.109Z,22.91
2018-07-23T05:48:42.024Z,22.64
2018-07-23T05:51:11.496Z,22.65
2018-07-23T05:53:40.873Z,22.42
2018-07-23T05:56:10.060Z,22.40
2018-07-23T05:58:39.255Z,22.67
2018-07-23T06:01:08.405Z,22.81
2018-07-23T06:03:37.645Z,23.22
2018-07-23T06:06:06.773Z,23.47
2018-07-23T06:08:35.964Z,23.44
2018-07-23T06:11:05.118Z,23.58
2018-07-23T06:13:34.339Z,23.93
2018-07-23T06:16:03.509Z,23.78
2018-07-23T06:18:32.641Z,24.12
2018-07-23T06:21:01.789Z,24.07
2018-07-23T06:23:31.090Z,24.68
2018-07-23T06:26:00.271Z,25.13
2018-07-23T06:28:29.411Z,25.31
2018-07-23T06:30:58.599Z,25.74
2018-07-23T06:33:27.885Z,25.98
2018-07-23T06:35:56.963Z,26.23
2018-07-23T06:38:26.105Z,26.32
2018-07-23T06:40:55.344Z,26.69
2018-07-23T06:43:24.596Z,26.99
2018-07-23T06:45:53.778Z,27.26
2018-07-23T06:48:22.965Z,27.24
2018-07-23T06:50:52.122Z,27.31
2018-07-23T06:53:21.511Z,27.18
2018-07-23T06:55:50.497Z,26.95
2018-07-23T06:58:19.730Z,27.32
2018-07-23T07:00:49.024Z,27.22
2018-07-23T07:03:18.366Z,27.92
2018-07-23T07:05:47.789Z,27.87
2018-07-23T07:08:17.023Z,28.32
2018-07-23T07:10:46.405Z,28.53
2018-07-23T07:13:16.027Z,28.87
2018-07-23T07:15:45.342Z,29.54
2018-07-23T07:18:14.718Z,28.96
2018-07-23T07:20:43.911Z,28.40
2018-07-23T07:23:13.092Z,28.24
2018-07-23T07:25:42.499Z,28.19
2018-07-23T07:28:11.944Z,27.77
2018-07-23T07:30:41.145Z,28.13
2018-07-23T07:33:10.304Z,28.06
2018-07-23T07:35:39.457Z,28.20
2018-07-23T07:38:08.906Z,28.55
2018-07-23T07:40:38.482Z,28.59
2018-07-23T07:43:07.442Z,28.45
2018-07-23T07:45:36.676Z,28.39
2018-07-23T07:48:06.006Z,28.65
2018-07-23T07:50:35.211Z,28.54
2018-07-23T07:53:04.100Z,28.04
2018-07-23T07:55:33.355Z,27.59
2018-07-23T07:58:02.557Z,27.53
2018-07-23T08:00:31.793Z,27.88
2018-07-23T08:03:00.925Z,27.64
2018-07-23T08:05:30.201Z,27.55
2018-07-23T08:07:59.443Z,27.71
2018-07-23T08:10:28.618Z,27.17
2018-07-23T08:12:57.799Z,26.61
2018-07-23T08:15:27.149Z,26.99
2018-07-23T08:17:56.380Z,26.94
2018-07-23T08:20:25.490Z,27.08
2018-07-23T08:22:54.638Z,27.06
2018-07-23T08:25:23.816Z,27.09
2018-07-23T08:27:53.020Z,26.84
2018-07-23T08:30:22.026Z,27.04
2018-07-23T08:32:51.210Z,27.32
2018-07-23T08:35:20.132Z,27.41
2018-07-23T08:37:49.441Z,27.65
2018-07-23T08:40:18.720Z,27.79
2018-07-23T08:42:47.863Z,27.95
2018-07-23T08:45:16.844Z,28.24
2018-07-23T08:47:46.082Z,28.41
2018-07-23T08:50:15.397Z,28.60
2018-07-23T08:52:44.697Z,29.05
2018-07-23T08:55:14.131Z,29.32
2018-07-23T08:57:43.445Z,29.69
2018-07-23T09:00:12.994Z,30.33
2018-07-23T09:02:42.224Z,30.58
2018-07-23T09:05:11.590Z,30.77
2018-07-23T09:07:40.919Z,30.46
2018-07-23T09:10:10.222Z,30.61
2018-07-23T09:12:39.416Z,30.60
2018-07-23T09:15:08.508Z,30.38
2018-07-23T09:17:37.826Z,30.73
2018-07-23T09:20:07.077Z,30.56
2018-07-23T09:22:36.970Z,31.30
2018-07-23T09:25:06.430Z,31.29
2018-07-23T09:27:35.606Z,31.16
2018-07-23T09:30:06.162Z,31.06
2018-07-23T09:32:35.379Z,31.05
2018-07-23T09:35:04.572Z,31.16
2018-07-23T09:37:33.732Z,31.48
2018-07-23T09:40:02.918Z,31.96
2018-07-23T09:42:32.117Z,32.54
2018-07-23T09:45:01.274Z,32.37
2018-07-23T09:47:30.548Z,32.89
2018-07-23T09:49:59.797Z,32.64
2018-07-23T09:52:28.979Z,32.66
2018-07-23T09:54:58.175Z,32.81
2018-07-23T09:57:27.386Z,32.68
2018-07-23T09:59:56.579Z,32.51
2018-07-23T10:02:25.779Z,32.27
2018-07-23T10:04:54.933Z,32.10
2018-07-23T10:07:24.151Z,31.93
2018-07-23T10:09:53.343Z,32.47
2018-07-23T10:12:22.508Z,32.97
2018-07-23T10:14:51.675Z,33.85
2018-07-23T10:17:20.830Z,34.44
2018-07-23T10:19:50.002Z,34.62
2018-07-23T10:22:19.344Z,35.04
2018-07-23T10:24:48.432Z,35.18
2018-07-23T10:27:17.657Z,35.14
2018-07-23T10:29:46.828Z,34.09
2018-07-23T10:32:15.775Z,33.92
2018-07-23T10:34:45.170Z,33.64
2018-07-23T10:37:14.459Z,33.26
2018-07-23T10:39:43.798Z,32.59
2018-07-23T10:42:13.030Z,32.59
2018-07-23T10:44:42.271Z,32.46
2018-07-23T10:47:11.562Z,32.15
2018-07-23T10:49:40.759Z,32.27
2018-07-23T10:52:10.032Z,31.77
2018-07-23T10:54:39.191Z,32.15
2018-07-23T10:57:08.434Z,32.29
2018-07-23T10:59:37.594Z,32.34
2018-07-23T11:02:06.789Z,32.36
2018-07-23T11:04:35.996Z,32.48
2018-07-23T11:07:05.032Z,32.79
2018-07-23T11:09:34.204Z,33.32
2018-07-23T11:12:03.478Z,33.51
2018-07-23T11:14:32.583Z,34.09
2018-07-23T11:17:01.711Z,34.40
2018-07-23T11:19:31.120Z,34.51
2018-07-23T11:22:00.337Z,34.71
2018-07-23T11:24:29.569Z,35.12
2018-07-23T11:26:58.789Z,34.95
2018-07-23T11:29:27.954Z,34.79
2018-07-23T11:31:56.994Z,34.80
2018-07-23T11:34:26.154Z,35.12
2018-07-23T11:36:55.298Z,35.42
2018-07-23T11:39:24.487Z,35.62
2018-07-23T11:41:53.685Z,35.65
2018-07-23T11:44:22.903Z,35.46
2018-07-23T11:46:52.083Z,34.81
2018-07-23T11:49:21.252Z,34.15
2018-07-23T11:51:50.520Z,33.93
2018-07-23T11:54:19.644Z,34.34
2018-07-23T11:56:48.824Z,34.66
2018-07-23T11:59:18.099Z,35.28
2018-07-23T12:01:47.470Z,35.43
2018-07-23T12:04:16.679Z,35.76
2018-07-23T12:06:45.545Z,35.82
2018-07-23T12:09:14.923Z,35.60
2018-07-23T12:11:44.188Z,35.15
2018-07-23T12:14:13.412Z,35.07
2018-07-23T12:16:42.802Z,35.40
2018-07-23T12:19:12.050Z,35.46
2018-07-23T12:21:41.291Z,35.32
2018-07-23T12:24:10.445Z,34.46
2018-07-23T12:26:39.820Z,34.03
2018-07-23T12:29:08.948Z,34.15
2018-07-23T12:31:38.160Z,34.51
2018-07-23T12:34:14.890Z,34.93
2018-07-23T12:36:44.255Z,34.09
2018-07-23T12:39:13.719Z,33.39
2018-07-23T12:41:43.174Z,33.11
2018-07-23T12:44:12.365Z,33.01
2018-07-23T12:46:41.500Z,32.66
2018-07-23T12:49:10.741Z,32.58
2018-07-23T12:51:40.167Z,32.74
2018-07-23T12:54:09.299Z,33.21
2018-07-23T12:56:38.426Z,32.87
2018-07-23T12:59:07.686Z,32.57
2018-07-23T13:01:36.804Z,32.86
2018-07-23T13:04:06.048Z,33.59
2018-07-23T13:06:35.308Z,34.04
2018-07-23T13:09:07.727Z,34.32
2018-07-23T13:11:36.948Z,34.42
2018-07-23T13:14:06.205Z,34.80
2018-07-23T13:16:35.578Z,35.16
2018-07-23T13:19:04.951Z,35.00
2018-07-23T13:21:34.161Z,34.73
2018-07-23T13:24:03.328Z,35.12
2018-07-23T13:26:32.563Z,35.21
2018-07-23T13:29:01.796Z,34.82
2018-07-23T13:31:31.006Z,35.24
2018-07-23T13:34:00.216Z,35.27
2018-07-23T13:36:29.451Z,35.28
2018-07-23T13:38:58.575Z,35.49
2018-07-23T13:41:27.750Z,35.43
2018-07-23T13:43:56.825Z,35.41
2018-07-23T13:46:26.017Z,35.05
2018-07-23T13:48:55.185Z,34.84
2018-07-23T13:51:24.311Z,34.87
2018-07-23T13:53:53.463Z,35.03
2018-07-23T13:56:22.647Z,35.29
2018-07-23T13:58:51.926Z,35.09
2018-07-23T14:01:21.063Z,34.97
2018-07-23T14:03:50.354Z,34.23
2018-07-23T14:06:20.934Z,34.34
2018-07-23T14:08:50.313Z,34.39
2018-07-23T14:11:19.771Z,34.36
2018-07-23T14:13:49.067Z,34.40
2018-07-23T14:16:18.259Z,34.61
2018-07-23T14:18:47.459Z,34.12
2018-07-23T14:21:16.738Z,34.40
2018-07-23T14:23:46.004Z,34.74
2018-07-23T14:26:15.275Z,34.79
2018-07-23T14:28:44.734Z,34.70
2018-07-23T14:31:13.937Z,34.70
2018-07-23T14:33:43.128Z,34.83
2018-07-23T14:36:12.989Z,34.78
2018-07-23T14:38:42.393Z,34.81
2018-07-23T14:41:11.569Z,34.80
2018-07-23T14:43:40.732Z,34.53
2018-07-23T14:46:09.860Z,34.53
2018-07-23T14:48:39.200Z,34.11
2018-07-23T14:51:08.357Z,34.25
2018-07-23T14:53:37.493Z,33.95
2018-07-23T14:56:06.641Z,33.87
2018-07-23T14:58:35.552Z,33.44
2018-07-23T15:01:04.797Z,33.31
2018-07-23T15:03:33.904Z,33.45
2018-07-23T15:06:03.140Z,33.53
2018-07-23T15:08:32.295Z,33.50
2018-07-23T15:11:01.440Z,33.46
2018-07-23T15:13:30.606Z,33.53
2018-07-23T15:15:59.759Z,33.32
2018-07-23T15:18:28.879Z,33.58
2018-07-23T15:20:58.054Z,33.33
2018-07-23T15:23:27.293Z,33.33
2018-07-23T15:25:56.455Z,33.29
2018-07-23T15:28:25.821Z,33.27
2018-07-23T15:30:55.027Z,33.17
2018-07-23T15:33:24.756Z,33.20
2018-07-23T15:35:53.899Z,32.98
2018-07-23T15:38:23.153Z,33.02
2018-07-23T15:40:52.290Z,32.60
2018-07-23T15:43:21.398Z,32.57
2018-07-23T15:45:50.527Z,32.49
2018-07-23T15:48:19.488Z,32.48
2018-07-23T15:50:48.715Z,32.17
2018-07-23T15:53:17.962Z,32.19
2018-07-23T15:55:47.258Z,32.05
2018-07-23T15:58:16.483Z,32.28
2018-07-23T16:00:45.742Z,31.96
2018-07-23T16:03:14.961Z,32.11
2018-07-23T16:05:44.230Z,32.02
2018-07-23T16:08:13.479Z,32.22
2018-07-23T16:10:43.155Z,32.42
2018-07-23T16:13:12.597Z,32.43
2018-07-23T16:15:41.958Z,32.19
2018-07-23T16:18:11.169Z,32.09
2018-07-23T16:20:40.407Z,32.14
2018-07-23T16:23:09.563Z,32.10
2018-07-23T16:25:38.687Z,32.07
2018-07-23T16:28:07.927Z,32.04
2018-07-23T16:30:37.064Z,32.13
2018-07-23T16:33:06.313Z,31.85
2018-07-23T16:35:35.462Z,31.74
2018-07-23T16:38:04.622Z,31.84
2018-07-23T16:40:33.888Z,31.71
2018-07-23T16:43:02.862Z,31.67
2018-07-23T16:45:32.035Z,31.48
2018-07-23T16:48:01.221Z,31.24
2018-07-23T16:50:30.427Z,31.36
2018-07-23T16:52:59.647Z,31.28
2018-07-23T16:55:29.065Z,31.29
2018-07-23T16:57:58.294Z,31.21
2018-07-23T17:00:27.498Z,31.27
2018-07-23T17:02:56.661Z,31.15
2018-07-23T17:05:25.947Z,31.17
2018-07-23T17:07:55.244Z,31.04
2018-07-23T17:10:24.434Z,30.80
2018-07-23T17:12:53.567Z,30.69
2018-07-23T17:15:22.731Z,30.71
2018-07-23T17:17:51.781Z,30.69
2018-07-23T17:20:21.051Z,30.71
2018-07-23T17:22:50.211Z,30.69
2018-07-23T17:25:19.637Z,30.63
2018-07-23T17:27:48.882Z,30.54
2018-07-23T17:30:18.283Z,30.44
2018-07-23T17:32:47.871Z,30.42
2018-07-23T17:35:18.144Z,30.36
2018-07-23T17:37:47.743Z,30.31
2018-07-23T17:40:17.370Z,30.19
2018-07-23T17:42:46.711Z,30.18
2018-07-23T17:45:16.143Z,30.13
2018-07-23T17:47:45.486Z,30.07
2018-07-23T17:50:14.791Z,30.00
2018-07-23T17:55:10.735Z,29.87
2018-07-23T17:57:39.761Z,29.83
2018-07-23T18:00:08.878Z,29.73
2018-07-23T18:02:38.041Z,29.58
2018-07-23T18:05:07.304Z,29.59
2018-07-23T18:07:36.364Z,29.49
2018-07-23T18:10:05.738Z,29.39
2018-07-23T18:12:34.967Z,29.26
2018-07-23T18:15:04.199Z,29.17
2018-07-23T18:17:33.502Z,29.00
2018-07-23T18:20:02.603Z,28.96
2018-07-23T18:22:31.812Z,28.89
2018-07-23T18:25:01.166Z,28.82
2018-07-23T18:27:30.392Z,28.74
2018-07-23T18:29:59.542Z,28.69
2018-07-23T18:32:28.842Z,28.64
2018-07-23T18:34:58.251Z,28.60
2018-07-23T18:37:27.443Z,28.53
2018-07-23T18:39:56.800Z,28.48
2018-07-23T18:42:26.207Z,28.42
2018-07-23T18:44:55.371Z,28.37
2018-07-23T18:47:24.585Z,28.29
2018-07-23T18:49:58.549Z,28.25
2018-07-23T18:52:28.741Z,28.19
2018-07-23T18:54:59.640Z,28.14
2018-07-23T18:57:28.878Z,28.08
2018-07-23T18:59:58.135Z,28.05
2018-07-23T19:02:27.342Z,28.01
2018-07-23T19:04:56.522Z,27.96
2018-07-23T19:07:25.749Z,27.95
2018-07-23T19:09:55.024Z,27.87
2018-07-23T19:12:25.143Z,27.87
2018-07-23T19:14:54.563Z,27.89
2018-07-23T19:17:23.573Z,27.86
2018-07-23T19:19:52.747Z,27.92
2018-07-23T19:22:21.970Z,27.84
2018-07-23T19:24:51.262Z,27.79
2018-07-23T19:27:20.678Z,27.70
2018-07-23T19:29:49.766Z,27.66
2018-07-23T19:32:19.195Z,27.59
2018-07-23T19:34:48.559Z,27.55
2018-07-23T19:37:17.757Z,27.51
2018-07-23T19:39:47.076Z,27.46
2018-07-23T19:42:16.553Z,27.39
2018-07-23T19:44:45.860Z,27.39
2018-07-23T19:47:15.207Z,27.31
2018-07-23T19:49:44.592Z,27.24
2018-07-23T19:52:13.904Z,27.19
2018-07-23T19:54:43.290Z,27.12
2018-07-23T19:57:12.766Z,27.06
2018-07-23T19:59:42.164Z,27.01
2018-07-23T20:02:11.597Z,26.89
2018-07-23T20:04:40.919Z,26.84
2018-07-23T20:07:10.119Z,26.79
2018-07-23T20:09:39.345Z,26.76
2018-07-23T20:12:08.557Z,26.69
2018-07-23T20:14:38.032Z,26.64
2018-07-23T20:17:07.282Z,26.59
2018-07-23T20:19:36.528Z,26.58
2018-07-23T20:22:05.571Z,26.46
2018-07-23T20:24:34.819Z,26.40
2018-07-23T20:27:04.081Z,26.40
2018-07-23T20:29:33.397Z,26.38
2018-07-23T20:32:02.594Z,26.30
2018-07-23T20:34:31.778Z,26.22
2018-07-23T20:37:01.088Z,26.16
2018-07-23T20:39:30.419Z,26.12
2018-07-23T20:41:59.644Z,26.06
2018-07-23T20:44:28.853Z,26.02
2018-07-23T20:46:58.066Z,25.93
2018-07-23T20:49:27.241Z,25.91
2018-07-23T20:51:56.753Z,25.82
2018-07-23T20:54:25.985Z,25.82
2018-07-23T20:56:55.276Z,25.75
2018-07-23T20:59:24.454Z,25.70
2018-07-23T21:01:53.671Z,25.63
2018-07-23T21:04:22.896Z,25.60
2018-07-23T21:06:52.181Z,25.54
2018-07-23T21:09:21.397Z,25.58
2018-07-23T21:11:50.555Z,25.55
2018-07-23T21:14:20.014Z,25.61
2018-07-23T21:16:49.313Z,25.65
2018-07-23T21:19:18.349Z,25.69
2018-07-23T21:21:48.242Z,25.78
2018-07-23T21:24:17.686Z,25.79
2018-07-23T21:26:46.896Z,25.93
2018-07-23T21:29:16.230Z,25.94
2018-07-23T21:31:45.915Z,25.89
2018-07-23T21:34:15.390Z,25.86
2018-07-23T21:36:44.631Z,25.76
2018-07-23T21:39:13.912Z,25.73
2018-07-23T21:41:43.197Z,25.77
2018-07-23T21:44:12.501Z,25.71
2018-07-23T21:46:41.540Z,25.73
2018-07-23T21:49:10.768Z,25.71
2018-07-23T21:51:40.214Z,25.67
2018-07-23T21:54:09.372Z,25.65
2018-07-23T21:56:38.598Z,25.58
2018-07-23T21:59:07.945Z,25.52
2018-07-23T22:01:37.216Z,25.47
2018-07-23T22:04:06.363Z,25.46
2018-07-23T22:06:35.562Z,25.42
2018-07-23T22:09:07.875Z,25.54
2018-07-23T22:11:37.488Z,25.41
2018-07-23T22:14:08.019Z,25.35
2018-07-23T22:16:37.632Z,25.32
2018-07-23T22:19:06.903Z,25.31
2018-07-23T22:21:37.029Z,25.30
2018-07-23T22:24:06.324Z,25.45
2018-07-23T22:26:35.574Z,25.33
2018-07-23T22:29:04.771Z,25.28
2018-07-23T22:31:33.863Z,25.18
2018-07-23T22:34:03.008Z,25.07
2018-07-23T22:36:32.206Z,24.96
2018-07-23T22:39:01.167Z,24.84
2018-07-23T22:41:30.361Z,24.69
2018-07-23T22:43:59.666Z,24.62
2018-07-23T22:46:28.958Z,24.53
2018-07-23T22:48:58.242Z,24.45
2018-07-23T22:51:27.447Z,24.36
2018-07-23T22:53:56.869Z,24.28
2018-07-23T22:56:26.130Z,24.19
2018-07-23T22:58:55.390Z,24.19
2018-07-23T23:01:24.633Z,24.14
2018-07-23T23:03:53.741Z,24.09
2018-07-23T23:06:22.940Z,24.11
2018-07-23T23:08:52.168Z,24.12
2018-07-23T23:11:21.198Z,24.13
2018-07-23T23:13:50.355Z,24.15
2018-07-23T23:16:19.930Z,24.14
2018-07-23T23:18:49.226Z,24.19
2018-07-23T23:21:18.466Z,24.19
2018-07-23T23:23:47.644Z,24.24
2018-07-23T23:26:17.249Z,24.15
2018-07-23T23:28:46.492Z,24.10
2018-07-23T23:31:15.822Z,24.16
2018-07-23T23:33:45.213Z,24.11
2018-07-23T23:36:14.661Z,24.23
2018-07-23T23:38:44.981Z,24.19
2018-07-23T23:41:14.344Z,24.16
2018-07-23T23:43:43.723Z,24.14
2018-07-23T23:46:13.321Z,24.10
2018-07-23T23:48:43.824Z,24.06
2018-07-23T23:51:13.267Z,24.05
2018-07-23T23:53:42.502Z,24.02
2018-07-23T23:56:11.725Z,23.95
2018-07-23T23:58:41.041Z,23.93
